createdAt,value
2019-04-01T00:01:09.817Z,100904.66
2019-04-01T00:03:36.070Z,100908.37
2019-04-01T00:06:02.286Z,100918.22
2019-04-01T00:08:28.423Z,100923.02
2019-04-01T00:10:54.649Z,100917.25
2019-04-01T00:13:20.800Z,100909.75
2019-04-01T00:15:47.011Z,100910.61
2019-04-01T00:18:13.189Z,100912.55
2019-04-01T00:20:39.429Z,100916.48
2019-04-01T00:23:05.716Z,100916.28
2019-04-01T00:25:32.334Z,100915.90
2019-04-01T00:27:58.472Z,100915.92
2019-04-01T00:30:24.703Z,100921.14
2019-04-01T00:32:50.854Z,100923.41
2019-04-01T00:35:17.001Z,100928.92
2019-04-01T00:37:43.222Z,100931.39
2019-04-01T00:40:10.052Z,100932.12
2019-04-01T00:42:44.105Z,100932.24
2019-04-01T00:45:12.681Z,100934.03
2019-04-01T00:47:39.191Z,100932.42
2019-04-01T00:50:05.808Z,100934.59
2019-04-01T00:52:32.009Z,100933.69
2019-04-01T00:54:58.311Z,100937.09
2019-04-01T00:57:24.529Z,100942.20
2019-04-01T00:59:50.665Z,100942.16
2019-04-01T01:02:16.936Z,100943.00
2019-04-01T01:04:43.136Z,100945.52
2019-04-01T01:07:09.352Z,100943.28
2019-04-01T01:09:35.506Z,100945.34
2019-04-01T01:12:01.690Z,100951.23
2019-04-01T01:14:28.219Z,100945.63
2019-04-01T01:16:54.426Z,100947.52
2019-04-01T01:19:20.566Z,100948.23
2019-04-01T01:21:46.759Z,100948.30
2019-04-01T01:24:12.908Z,100948.12
2019-04-01T01:26:39.099Z,100947.12
2019-04-01T01:29:05.571Z,100945.31
2019-04-01T01:31:31.781Z,100942.94
2019-04-01T01:33:57.924Z,100942.48
2019-04-01T01:36:24.134Z,100942.27
2019-04-01T01:38:50.380Z,100944.31
2019-04-01T01:41:16.501Z,100945.30
2019-04-01T01:43:42.723Z,100946.38
2019-04-01T01:46:08.854Z,100948.04
2019-04-01T01:48:35.335Z,100946.70
2019-04-01T01:51:01.486Z,100941.73
2019-04-01T01:53:27.742Z,100941.63
2019-04-01T01:55:53.894Z,100943.73
2019-04-01T01:58:20.125Z,100947.55
2019-04-01T02:00:46.272Z,100942.81
2019-04-01T02:03:12.472Z,100946.25
2019-04-01T02:05:38.607Z,100945.19
2019-04-01T02:08:04.800Z,100942.73
2019-04-01T02:10:30.947Z,100947.05
2019-04-01T02:12:57.252Z,100951.52
2019-04-01T02:15:23.390Z,100946.03
2019-04-01T02:17:49.600Z,100947.45
2019-04-01T02:20:15.749Z,100941.39
2019-04-01T02:22:41.961Z,100941.52
2019-04-01T02:25:08.108Z,100947.93
2019-04-01T02:27:34.234Z,100944.05
2019-04-01T02:30:00.581Z,100938.11
2019-04-01T02:32:26.953Z,100943.13
2019-04-01T02:34:53.152Z,100945.20
2019-04-01T02:37:19.288Z,100951.03
2019-04-01T02:39:45.494Z,100946.16
2019-04-01T02:42:11.668Z,100945.06
2019-04-01T02:44:37.901Z,100947.87
2019-04-01T02:47:04.041Z,100945.19
2019-04-01T02:49:30.268Z,100942.06
2019-04-01T02:51:56.415Z,100948.23
2019-04-01T02:54:22.788Z,100946.66
2019-04-01T02:56:48.956Z,100944.04
2019-04-01T02:59:15.178Z,100940.29
2019-04-01T03:01:41.314Z,100944.46
2019-04-01T03:04:07.526Z,100941.77
2019-04-01T03:06:33.696Z,100946.66
2019-04-01T03:08:59.859Z,100948.69
2019-04-01T03:11:25.995Z,100953.44
2019-04-01T03:13:52.222Z,100956.52
2019-04-01T03:16:18.365Z,100952.70
2019-04-01T03:18:44.506Z,100952.00
2019-04-01T03:21:10.736Z,100947.03
2019-04-01T03:23:36.874Z,100953.98
2019-04-01T03:26:03.063Z,100953.44
2019-04-01T03:28:29.205Z,100955.70
2019-04-01T03:30:55.415Z,100952.81
2019-04-01T03:33:21.553Z,100954.29
2019-04-01T03:35:47.776Z,100947.97
2019-04-01T03:38:13.930Z,100948.93
2019-04-01T03:40:42.207Z,100949.27
2019-04-01T03:43:08.396Z,100953.73
2019-04-01T03:45:34.658Z,100952.17
2019-04-01T03:48:00.819Z,100951.17
2019-04-01T03:50:27.035Z,100952.45
2019-04-01T03:52:53.246Z,100955.83
2019-04-01T03:55:19.506Z,100955.19
2019-04-01T03:57:45.982Z,100953.77
2019-04-01T04:00:19.055Z,100955.45
2019-04-01T04:02:45.228Z,100953.97
2019-04-01T04:05:11.487Z,100956.08
2019-04-01T04:07:37.692Z,100961.04
2019-04-01T04:10:12.267Z,100958.80
2019-04-01T04:12:38.381Z,100958.31
2019-04-01T04:15:04.625Z,100957.88
2019-04-01T04:17:30.850Z,100957.41
2019-04-01T04:19:56.988Z,100956.08
2019-04-01T04:22:23.262Z,100955.92
2019-04-01T04:24:49.627Z,100955.69
2019-04-01T04:27:15.824Z,100957.12
2019-04-01T04:29:41.978Z,100963.69
2019-04-01T04:32:08.209Z,100954.80
2019-04-01T04:34:34.565Z,100957.59
2019-04-01T04:37:00.791Z,100960.93
2019-04-01T04:39:27.189Z,100959.83
2019-04-01T04:41:53.391Z,100959.13
2019-04-01T04:44:19.706Z,100962.77
2019-04-01T04:46:46.235Z,100957.33
2019-04-01T04:49:12.376Z,100963.79
2019-04-01T04:51:38.598Z,100960.34
2019-04-01T04:54:08.962Z,100965.07
2019-04-01T04:56:35.272Z,100963.53
2019-04-01T04:59:01.736Z,100966.64
2019-04-01T05:01:27.921Z,100969.59
2019-04-01T05:03:54.084Z,100970.98
2019-04-01T05:06:20.462Z,100969.75
2019-04-01T05:08:46.602Z,100971.71
2019-04-01T05:11:12.745Z,100974.42
2019-04-01T05:13:39.033Z,100977.14
2019-04-01T05:16:05.176Z,100979.24
2019-04-01T05:18:31.459Z,100974.88
2019-04-01T05:20:58.456Z,100978.12
2019-04-01T05:23:24.991Z,100981.04
2019-04-01T05:25:51.721Z,100977.38
2019-04-01T05:28:18.725Z,100976.89
2019-04-01T05:30:46.243Z,100976.11
2019-04-01T05:33:13.330Z,100987.32
2019-04-01T05:35:39.481Z,100983.47
2019-04-01T05:38:06.449Z,100985.42
2019-04-01T05:40:33.485Z,100985.55
2019-04-01T05:42:59.891Z,100980.69
2019-04-01T05:45:26.274Z,100980.07
2019-04-01T05:47:54.010Z,100981.62
2019-04-01T05:50:20.540Z,100985.03
2019-04-01T05:52:47.648Z,100982.92
2019-04-01T05:55:13.873Z,100984.32
2019-04-01T05:57:40.375Z,100985.20
2019-04-01T06:00:07.343Z,100987.78
2019-04-01T06:02:33.643Z,100985.53
2019-04-01T06:05:00.147Z,100986.35
2019-04-01T06:07:26.796Z,100984.46
2019-04-01T06:09:53.060Z,100989.34
2019-04-01T06:12:19.702Z,100983.27
2019-04-01T06:14:46.287Z,100981.33
2019-04-01T06:17:12.449Z,100980.89
2019-04-01T06:19:38.674Z,100978.57
2019-04-01T06:22:04.841Z,100976.88
2019-04-01T06:24:31.731Z,100977.91
2019-04-01T06:26:57.885Z,100976.55
2019-04-01T06:29:26.903Z,100980.73
2019-04-01T06:31:53.029Z,100976.70
2019-04-01T06:34:19.235Z,100979.66
2019-04-01T06:36:45.410Z,100982.78
2019-04-01T06:39:11.615Z,100979.97
2019-04-01T06:41:37.812Z,100976.70
2019-04-01T06:44:04.106Z,100980.53
2019-04-01T06:46:30.250Z,100979.83
2019-04-01T06:48:56.487Z,100980.58
2019-04-01T06:51:22.625Z,100985.70
2019-04-01T06:53:48.969Z,100979.63
2019-04-01T06:56:15.149Z,100974.50
2019-04-01T06:58:41.657Z,100976.52
2019-04-01T07:01:08.499Z,100978.21
2019-04-01T07:03:35.157Z,100976.48
2019-04-01T07:06:01.435Z,100980.13
2019-04-01T07:08:27.570Z,100979.89
2019-04-01T07:10:53.787Z,100976.72
2019-04-01T07:13:20.138Z,100974.88
2019-04-01T07:15:46.345Z,100977.48
2019-04-01T07:18:12.527Z,100981.22
2019-04-01T07:20:38.821Z,100981.88
2019-04-01T07:23:05.443Z,100975.50
2019-04-01T07:25:34.133Z,100970.56
2019-04-01T07:27:59.823Z,100974.59
2019-04-01T07:30:26.316Z,100970.43
2019-04-01T07:32:52.478Z,100975.27
2019-04-01T07:35:18.682Z,100977.24
2019-04-01T07:37:44.920Z,100973.38
2019-04-01T07:40:13.894Z,100974.19
2019-04-01T07:42:39.645Z,100972.53
2019-04-01T07:45:06.541Z,100980.84
2019-04-01T07:47:33.323Z,100971.78
2019-04-01T07:49:59.551Z,100976.34
2019-04-01T07:52:26.334Z,100979.73
2019-04-01T07:54:53.207Z,100978.50
2019-04-01T07:57:19.345Z,100977.13
2019-04-01T07:59:45.553Z,100973.42
2019-04-01T08:02:11.783Z,100976.80
2019-04-01T08:04:37.983Z,100976.16
2019-04-01T08:07:04.660Z,100971.43
2019-04-01T08:09:32.077Z,100967.52
2019-04-01T08:11:58.300Z,100971.91
2019-04-01T08:14:24.429Z,100971.34
2019-04-01T08:16:50.738Z,100970.52
2019-04-01T08:19:16.896Z,100966.86
2019-04-01T08:21:43.189Z,100964.13
2019-04-01T08:24:09.326Z,100965.56
2019-04-01T08:26:35.523Z,100955.19
2019-04-01T08:29:01.775Z,100958.64
2019-04-01T08:31:28.086Z,100959.50
2019-04-01T08:33:54.433Z,100953.94
2019-04-01T08:36:20.740Z,100954.06
2019-04-01T08:38:46.879Z,100951.77
2019-04-01T08:41:13.589Z,100954.74
2019-04-01T08:43:40.127Z,100950.27
2019-04-01T08:46:07.302Z,100950.11
2019-04-01T08:48:35.710Z,100949.16
2019-04-01T08:51:02.557Z,100950.09
2019-04-01T08:53:29.311Z,100946.16
2019-04-01T08:56:00.587Z,100941.02
2019-04-01T08:58:23.591Z,100941.80
2019-04-01T09:00:49.730Z,100945.80
2019-04-01T09:03:16.212Z,100942.59
2019-04-01T09:05:42.373Z,100938.56
2019-04-01T09:08:08.573Z,100935.66
2019-04-01T09:10:35.310Z,100933.95
2019-04-01T09:13:01.919Z,100926.47
2019-04-01T09:15:28.156Z,100913.80
2019-04-01T09:17:54.496Z,100920.48
2019-04-01T09:20:20.981Z,100908.92
2019-04-01T09:22:47.296Z,100914.58
2019-04-01T09:25:13.453Z,100910.07
2019-04-01T09:27:39.884Z,100908.02
2019-04-01T09:30:07.860Z,100909.75
2019-04-01T09:32:34.088Z,100906.22
2019-04-01T09:35:00.518Z,100902.23
2019-04-01T09:37:27.306Z,100903.39
2019-04-01T09:39:53.555Z,100900.81
2019-04-01T09:42:20.059Z,100901.44
2019-04-01T09:44:46.239Z,100901.17
2019-04-01T09:47:12.837Z,100891.89
2019-04-01T09:49:38.978Z,100889.19
2019-04-01T09:52:05.163Z,100886.69
2019-04-01T09:54:31.534Z,100889.78
2019-04-01T09:56:57.673Z,100883.64
2019-04-01T09:59:24.000Z,100884.58
2019-04-01T10:01:50.150Z,100883.55
2019-04-01T10:04:16.354Z,100880.24
2019-04-01T10:06:42.571Z,100871.52
2019-04-01T10:09:08.851Z,100874.37
2019-04-01T10:11:35.004Z,100872.30
2019-04-01T10:14:01.702Z,100871.23
2019-04-01T10:16:27.960Z,100866.34
2019-04-01T10:18:54.176Z,100856.25
2019-04-01T10:21:20.297Z,100863.03
2019-04-01T10:23:46.542Z,100858.03
2019-04-01T10:26:12.815Z,100856.41
2019-04-01T10:28:39.020Z,100855.23
2019-04-01T10:31:05.222Z,100849.58
2019-04-01T10:33:31.438Z,100850.72
2019-04-01T10:35:57.575Z,100839.03
2019-04-01T10:38:23.788Z,100841.82
2019-04-01T10:40:50.309Z,100837.19
2019-04-01T10:43:16.772Z,100831.33
2019-04-01T10:45:43.137Z,100835.16
2019-04-01T10:48:09.512Z,100821.38
2019-04-01T10:50:35.705Z,100831.67
2019-04-01T10:53:01.885Z,100827.78
2019-04-01T10:55:28.178Z,100824.38
2019-04-01T10:57:54.486Z,100824.80
2019-04-01T11:00:21.152Z,100821.69
2019-04-01T11:02:50.015Z,100818.59
2019-04-01T11:05:15.946Z,100815.42
2019-04-01T11:07:42.084Z,100814.82
2019-04-01T11:10:11.486Z,100816.63
2019-04-01T11:12:36.969Z,100812.75
2019-04-01T11:15:05.718Z,100797.75
2019-04-01T11:17:31.871Z,100807.63
2019-04-01T11:19:58.081Z,100806.06
2019-04-01T11:22:24.598Z,100810.70
2019-04-01T11:24:50.814Z,100794.42
2019-04-01T11:27:16.937Z,100801.81
2019-04-01T11:29:43.150Z,100797.82
2019-04-01T11:32:13.093Z,100799.63
2019-04-01T11:34:37.454Z,100800.98
2019-04-01T11:37:04.210Z,100794.95
2019-04-01T11:39:30.395Z,100791.31
2019-04-01T11:41:56.567Z,100786.45
2019-04-01T11:44:22.775Z,100782.36
2019-04-01T11:46:48.958Z,100786.17
2019-04-01T11:49:15.493Z,100784.45
2019-04-01T11:51:41.719Z,100776.34
2019-04-01T11:54:08.332Z,100769.59
2019-04-01T11:56:35.025Z,100775.48
2019-04-01T11:59:01.283Z,100771.05
2019-04-01T12:01:27.512Z,100762.50
2019-04-01T12:03:53.670Z,100763.81
2019-04-01T12:06:21.163Z,100753.48
2019-04-01T12:08:47.477Z,100751.09
2019-04-01T12:11:13.710Z,100748.50
2019-04-01T12:13:39.863Z,100738.01
2019-04-01T12:16:06.880Z,100746.91
2019-04-01T12:18:33.345Z,100744.42
2019-04-01T12:20:59.574Z,100733.36
2019-04-01T12:23:25.732Z,100733.19
2019-04-01T12:25:51.986Z,100736.57
2019-04-01T12:28:18.426Z,100725.06
2019-04-01T12:30:44.717Z,100721.25
2019-04-01T12:33:10.896Z,100724.59
2019-04-01T12:35:37.097Z,100716.22
2019-04-01T12:38:03.865Z,100715.91
2019-04-01T12:40:30.095Z,100711.13
2019-04-01T12:42:56.250Z,100706.86
2019-04-01T12:45:22.763Z,100710.73
2019-04-01T12:47:49.358Z,100697.33
2019-04-01T12:50:15.621Z,100702.20
2019-04-01T12:52:42.759Z,100704.84
2019-04-01T12:55:09.272Z,100694.17
2019-04-01T12:57:35.477Z,100693.16
2019-04-01T13:00:04.719Z,100686.81
2019-04-01T13:02:31.073Z,100688.16
2019-04-01T13:04:57.455Z,100676.64
2019-04-01T13:07:23.678Z,100672.44
2019-04-01T13:09:49.957Z,100672.92
2019-04-01T13:12:17.850Z,100671.72
2019-04-01T13:14:44.077Z,100668.84
2019-04-01T13:17:10.304Z,100662.81
2019-04-01T13:19:36.453Z,100653.26
2019-04-01T13:22:02.674Z,100651.89
2019-04-01T13:24:28.816Z,100647.70
2019-04-01T13:26:55.038Z,100639.04
2019-04-01T13:29:21.173Z,100641.88
2019-04-01T13:31:47.496Z,100634.19
2019-04-01T13:34:13.672Z,100633.50
2019-04-01T13:36:39.992Z,100627.50
2019-04-01T13:39:06.396Z,100616.64
2019-04-01T13:41:42.330Z,100618.64
2019-04-01T13:44:01.006Z,100613.30
2019-04-01T13:46:27.745Z,100605.53
2019-04-01T13:48:58.030Z,100609.52
2019-04-01T13:51:22.091Z,100607.12
2019-04-01T13:53:48.304Z,100612.13
2019-04-01T13:56:14.460Z,100598.95
2019-04-01T13:58:40.662Z,100599.95
2019-04-01T14:01:06.890Z,100595.26
2019-04-01T14:03:33.094Z,100596.93
2019-04-01T14:05:59.258Z,100599.27
2019-04-01T14:08:25.458Z,100597.73
2019-04-01T14:10:51.620Z,100593.70
2019-04-01T14:13:17.895Z,100589.84
2019-04-01T14:15:44.048Z,100581.67
2019-04-01T14:18:10.632Z,100580.97
2019-04-01T14:20:36.755Z,100577.34
2019-04-01T14:23:02.978Z,100581.48
2019-04-01T14:25:29.125Z,100578.41
2019-04-01T14:27:55.331Z,100568.84
2019-04-01T14:30:21.478Z,100569.77
2019-04-01T14:32:47.804Z,100572.39
2019-04-01T14:35:13.961Z,100564.48
2019-04-01T14:37:40.274Z,100565.26
2019-04-01T14:40:08.561Z,100568.22
2019-04-01T14:42:37.157Z,100557.89
2019-04-01T14:45:05.977Z,100567.82
2019-04-01T14:47:32.660Z,100565.95
2019-04-01T14:49:59.346Z,100544.95
2019-04-01T14:52:32.092Z,100552.30
2019-04-01T14:54:55.102Z,100553.96
2019-04-01T14:57:21.490Z,100546.63
2019-04-01T14:59:47.806Z,100542.59
2019-04-01T15:02:13.953Z,100527.45
2019-04-01T15:04:40.170Z,100541.58
2019-04-01T15:07:06.323Z,100538.87
2019-04-01T15:09:32.881Z,100529.02
2019-04-01T15:11:59.056Z,100531.98
2019-04-01T15:14:25.285Z,100527.80
2019-04-01T15:16:51.523Z,100525.09
2019-04-01T15:19:17.734Z,100526.84
2019-04-01T15:21:47.230Z,100522.41
2019-04-01T15:24:11.957Z,100520.20
2019-04-01T15:26:38.159Z,100515.50
2019-04-01T15:29:04.302Z,100515.31
2019-04-01T15:31:30.566Z,100515.08
2019-04-01T15:33:56.712Z,100505.86
2019-04-01T15:36:22.929Z,100508.59
2019-04-01T15:38:49.068Z,100510.52
2019-04-01T15:41:16.198Z,100505.51
2019-04-01T15:43:42.429Z,100502.93
2019-04-01T15:46:08.639Z,100495.76
2019-04-01T15:48:34.814Z,100492.25
2019-04-01T15:51:01.037Z,100493.66
2019-04-01T15:53:27.182Z,100492.09
2019-04-01T15:55:53.414Z,100491.84
2019-04-01T15:58:19.594Z,100485.55
2019-04-01T16:00:52.570Z,100481.31
2019-04-01T16:03:18.748Z,100488.39
2019-04-01T16:05:44.944Z,100482.75
2019-04-01T16:08:11.178Z,100481.86
2019-04-01T16:10:37.406Z,100479.94
2019-04-01T16:13:03.549Z,100486.69
2019-04-01T16:15:32.041Z,100483.44
2019-04-01T16:17:57.787Z,100477.93
2019-04-01T16:20:23.945Z,100481.35
2019-04-01T16:22:50.465Z,100472.82
2019-04-01T16:25:16.600Z,100480.39
2019-04-01T16:27:43.267Z,100474.81
2019-04-01T16:30:09.602Z,100473.42
2019-04-01T16:32:36.102Z,100471.66
2019-04-01T16:35:04.787Z,100473.38
2019-04-01T16:37:31.041Z,100470.16
2019-04-01T16:39:57.556Z,100467.47
2019-04-01T16:42:23.807Z,100466.11
2019-04-01T16:44:49.957Z,100464.08
2019-04-01T16:47:16.209Z,100465.88
2019-04-01T16:49:42.358Z,100458.09
2019-04-01T16:52:08.624Z,100475.73
2019-04-01T16:54:34.782Z,100474.00
2019-04-01T16:57:00.991Z,100470.11
2019-04-01T16:59:28.138Z,100476.95
2019-04-01T17:01:57.629Z,100478.34
2019-04-01T17:04:22.638Z,100478.00
2019-04-01T17:06:48.862Z,100470.63
2019-04-01T17:09:15.013Z,100471.21
2019-04-01T17:11:41.208Z,100469.97
2019-04-01T17:14:09.079Z,100469.35
2019-04-01T17:16:35.390Z,100469.27
2019-04-01T17:19:01.923Z,100469.35
2019-04-01T17:21:28.050Z,100468.94
2019-04-01T17:23:54.248Z,100475.22
2019-04-01T17:26:20.650Z,100469.34
2019-04-01T17:28:46.857Z,100463.63
2019-04-01T17:31:13.129Z,100466.85
2019-04-01T17:33:39.560Z,100469.45
2019-04-01T17:36:05.836Z,100468.59
2019-04-01T17:38:32.029Z,100468.13
2019-04-01T17:40:58.168Z,100469.89
2019-04-01T17:43:24.367Z,100468.97
2019-04-01T17:45:50.564Z,100476.05
2019-04-01T17:48:16.958Z,100470.94
2019-04-01T17:50:43.173Z,100475.95
2019-04-01T17:53:10.211Z,100475.86
2019-04-01T17:55:36.386Z,100473.98
2019-04-01T17:58:04.060Z,100471.84
2019-04-01T18:00:32.163Z,100473.08
2019-04-01T18:02:58.497Z,100477.41
2019-04-01T18:05:24.702Z,100477.80
2019-04-01T18:07:51.137Z,100485.02
2019-04-01T18:10:17.500Z,100489.94
2019-04-01T18:12:43.789Z,100488.52
2019-04-01T18:15:10.129Z,100486.55
2019-04-01T18:17:36.453Z,100487.92
2019-04-01T18:20:05.733Z,100491.75
2019-04-01T18:22:31.932Z,100491.69
2019-04-01T18:24:58.204Z,100489.94
2019-04-01T18:27:24.335Z,100491.16
2019-04-01T18:29:50.606Z,100492.80
2019-04-01T18:32:16.831Z,100494.45
2019-04-01T18:34:43.122Z,100494.01
2019-04-01T18:37:09.248Z,100498.52
2019-04-01T18:39:47.548Z,100495.54
2019-04-01T18:42:03.975Z,100497.30
2019-04-01T18:44:30.199Z,100491.80
2019-04-01T18:46:56.410Z,100492.30
2019-04-01T18:49:22.765Z,100498.28
2019-04-01T18:51:48.903Z,100492.48
2019-04-01T18:54:15.158Z,100490.66
2019-04-01T18:56:41.325Z,100500.57
2019-04-01T18:59:07.571Z,100490.92
2019-04-01T19:01:33.750Z,100495.27
2019-04-01T19:04:00.066Z,100490.52
2019-04-01T19:06:26.227Z,100492.36
2019-04-01T19:08:52.424Z,100488.77
2019-04-01T19:11:18.639Z,100486.11
2019-04-01T19:13:45.030Z,100488.88
2019-04-01T19:16:12.965Z,100485.05
2019-04-01T19:18:39.853Z,100483.30
2019-04-01T19:21:08.206Z,100478.45
2019-04-01T19:23:34.523Z,100487.78
2019-04-01T19:26:00.796Z,100482.22
2019-04-01T19:28:26.955Z,100486.59
2019-04-01T19:30:53.188Z,100482.39
2019-04-01T19:33:19.436Z,100485.30
2019-04-01T19:35:45.796Z,100481.27
2019-04-01T19:38:11.939Z,100479.40
2019-04-01T19:40:38.186Z,100479.55
2019-04-01T19:43:04.658Z,100479.84
2019-04-01T19:45:30.913Z,100476.86
2019-04-01T19:47:57.461Z,100473.83
2019-04-01T19:50:23.897Z,100478.55
2019-04-01T19:52:50.061Z,100474.35
2019-04-01T19:55:16.292Z,100484.07
2019-04-01T19:57:42.443Z,100478.75
2019-04-01T20:00:09.060Z,100479.90
2019-04-01T20:02:35.179Z,100472.95
2019-04-01T20:05:03.185Z,100476.34
2019-04-01T20:07:29.459Z,100477.54
2019-04-01T20:09:55.692Z,100473.70
2019-04-01T20:12:21.834Z,100474.30
2019-04-01T20:14:47.994Z,100468.71
2019-04-01T20:17:14.212Z,100470.05
2019-04-01T20:19:43.056Z,100469.23
2019-04-01T20:22:09.265Z,100468.28
2019-04-01T20:24:35.427Z,100465.83
2019-04-01T20:27:01.663Z,100462.41
2019-04-01T20:29:30.285Z,100458.13
2019-04-01T20:31:56.032Z,100457.97
2019-04-01T20:34:22.916Z,100453.87
2019-04-01T20:36:49.334Z,100456.97
2019-04-01T20:39:15.480Z,100457.05
2019-04-01T20:41:41.677Z,100459.62
2019-04-01T20:44:07.820Z,100463.82
2019-04-01T20:46:34.740Z,100465.75
2019-04-01T20:49:01.259Z,100462.26
2019-04-01T20:51:28.389Z,100458.72
2019-04-01T20:53:54.531Z,100449.66
2019-04-01T20:56:20.870Z,100447.54
2019-04-01T20:58:47.078Z,100444.06
2019-04-01T21:01:13.217Z,100443.84
2019-04-01T21:03:39.798Z,100442.52
2019-04-01T21:06:05.965Z,100439.63
2019-04-01T21:08:32.186Z,100433.21
2019-04-01T21:10:58.328Z,100430.20
2019-04-01T21:13:24.533Z,100431.19
2019-04-01T21:15:50.655Z,100434.34
2019-04-01T21:18:16.854Z,100433.98
2019-04-01T21:20:43.109Z,100433.98
2019-04-01T21:23:09.319Z,100436.96
2019-04-01T21:25:35.446Z,100428.06
2019-04-01T21:28:01.696Z,100422.28
2019-04-01T21:30:27.830Z,100415.22
2019-04-01T21:32:54.085Z,100413.89
2019-04-01T21:35:20.544Z,100406.75
2019-04-01T21:37:46.754Z,100403.80
2019-04-01T21:40:13.124Z,100402.56
2019-04-01T21:42:39.329Z,100405.28
2019-04-01T21:45:07.000Z,100401.72
2019-04-01T21:47:33.190Z,100398.88
2019-04-01T21:49:59.592Z,100398.65
2019-04-01T21:52:26.056Z,100396.44
2019-04-01T21:54:52.193Z,100390.50
2019-04-01T21:57:20.441Z,100390.23
2019-04-01T21:59:46.451Z,100391.42
2019-04-01T22:02:12.667Z,100387.20
2019-04-01T22:04:38.874Z,100389.48
2019-04-01T22:07:05.005Z,100385.81
2019-04-01T22:09:31.221Z,100382.53
2019-04-01T22:11:58.156Z,100381.92
2019-04-01T22:14:25.269Z,100382.27
2019-04-01T22:16:52.074Z,100374.86
2019-04-01T22:19:18.337Z,100372.49
2019-04-01T22:21:44.474Z,100372.23
2019-04-01T22:24:10.715Z,100372.25
2019-04-01T22:26:37.110Z,100371.08
2019-04-01T22:29:03.418Z,100372.25
2019-04-01T22:31:29.641Z,100368.97
2019-04-01T22:33:55.844Z,100365.73
2019-04-01T22:36:30.889Z,100364.41
2019-04-01T22:38:50.097Z,100363.44
2019-04-01T22:41:16.220Z,100356.52
2019-04-01T22:43:42.425Z,100356.10
2019-04-01T22:46:08.584Z,100358.09
2019-04-01T22:48:34.730Z,100347.40
2019-04-01T22:51:00.950Z,100349.44
2019-04-01T22:53:27.088Z,100347.38
2019-04-01T22:55:53.281Z,100344.91
2019-04-01T22:58:19.430Z,100345.80
2019-04-01T23:00:47.027Z,100341.72
2019-04-01T23:03:13.421Z,100335.87
2019-04-01T23:05:39.640Z,100331.74
2019-04-01T23:08:05.796Z,100330.61
2019-04-01T23:10:31.979Z,100325.99
2019-04-01T23:12:58.126Z,100330.78
2019-04-01T23:15:24.582Z,100330.28
2019-04-01T23:17:50.715Z,100326.02
2019-04-01T23:20:16.909Z,100326.02
2019-04-01T23:22:43.056Z,100319.43
2019-04-01T23:25:09.262Z,100320.83
2019-04-01T23:27:35.401Z,100317.30
2019-04-01T23:30:03.810Z,100313.27
2019-04-01T23:32:30.110Z,100308.81
2019-04-01T23:34:56.302Z,100315.83
2019-04-01T23:37:22.442Z,100313.98
2019-04-01T23:39:48.642Z,100307.48
2019-04-01T23:42:15.146Z,100309.89
2019-04-01T23:44:41.283Z,100303.48
2019-04-01T23:47:07.485Z,100299.21
2019-04-01T23:49:33.827Z,100297.88
2019-04-01T23:51:59.994Z,100299.25
2019-04-01T23:54:26.466Z,100298.76
2019-04-01T23:56:52.653Z,100297.27
2019-04-01T23:59:19.218Z,100294.48
